createdAt,value
2022-12-06T00:01:47.438Z,100948.91
2022-12-06T00:04:16.276Z,100956.91
2022-12-06T00:06:47.995Z,100955.13
2022-12-06T00:09:30.848Z,100956.03
2022-12-06T00:11:58.243Z,100948.09
2022-12-06T00:14:26.349Z,100944.06
2022-12-06T00:16:52.866Z,100948.00
2022-12-06T00:19:21.812Z,100941.78
2022-12-06T00:21:49.483Z,100941.88
2022-12-06T00:24:18.789Z,100936.25
2022-12-06T00:26:47.283Z,100945.44
2022-12-06T00:29:17.781Z,100944.97
2022-12-06T00:31:44.713Z,100941.06
2022-12-06T00:34:11.413Z,100939.84
2022-12-06T00:36:40.065Z,100939.66
2022-12-06T00:39:12.243Z,100942.78
2022-12-06T00:41:39.134Z,100931.69
2022-12-06T00:44:05.875Z,100932.09
2022-12-06T00:46:33.613Z,100939.13
2022-12-06T00:49:01.327Z,100928.53
2022-12-06T00:51:29.623Z,100934.03
2022-12-06T00:53:56.365Z,100937.47
2022-12-06T00:56:22.876Z,100933.81
2022-12-06T00:58:49.358Z,100934.75
2022-12-06T01:01:21.642Z,100933.63
2022-12-06T01:03:52.026Z,100944.88
2022-12-06T01:06:20.471Z,100933.13
2022-12-06T01:08:46.955Z,100933.69
2022-12-06T01:11:15.532Z,100927.72
2022-12-06T01:13:43.294Z,100925.59
2022-12-06T01:16:13.108Z,100936.06
2022-12-06T01:18:40.529Z,100931.31
2022-12-06T01:21:08.834Z,100921.22
2022-12-06T01:23:36.170Z,100918.81
2022-12-06T01:26:04.550Z,100922.06
2022-12-06T01:28:31.136Z,100918.38
2022-12-06T01:30:57.814Z,100917.78
2022-12-06T01:33:24.349Z,100921.09
2022-12-06T01:35:50.776Z,100920.34
2022-12-06T01:38:17.234Z,100916.66
2022-12-06T01:40:46.489Z,100920.19
2022-12-06T01:43:31.640Z,100914.50
2022-12-06T01:46:03.443Z,100915.53
2022-12-06T01:48:29.941Z,100903.84
2022-12-06T01:50:57.877Z,100913.44
2022-12-06T01:53:25.776Z,100903.31
2022-12-06T01:55:53.600Z,100913.09
2022-12-06T01:58:25.019Z,100900.31
2022-12-06T02:00:51.952Z,100896.41
2022-12-06T02:03:24.007Z,100898.97
2022-12-06T02:05:51.641Z,100905.69
2022-12-06T02:08:20.807Z,100898.22
2022-12-06T02:10:47.266Z,100902.66
2022-12-06T02:13:14.344Z,100896.66
2022-12-06T02:15:48.775Z,100895.69
2022-12-06T02:18:23.635Z,100892.16
2022-12-06T02:21:10.262Z,100891.19
2022-12-06T02:23:43.483Z,100886.94
2022-12-06T02:26:36.710Z,100879.38
2022-12-06T02:29:37.988Z,100883.72
2022-12-06T02:32:26.229Z,100877.38
2022-12-06T02:35:19.364Z,100877.59
2022-12-06T02:38:16.776Z,100872.06
2022-12-06T02:40:54.433Z,100873.38
2022-12-06T02:43:25.883Z,100875.53
2022-12-06T02:45:56.923Z,100870.44
2022-12-06T02:48:25.858Z,100866.06
2022-12-06T02:51:00.001Z,100878.38
2022-12-06T02:53:29.074Z,100875.75
2022-12-06T02:55:57.119Z,100884.75
2022-12-06T02:58:23.620Z,100881.31
2022-12-06T03:00:56.619Z,100883.97
2022-12-06T03:03:35.534Z,100874.44
2022-12-06T03:06:02.082Z,100874.69
2022-12-06T03:08:46.480Z,100867.22
2022-12-06T03:11:13.787Z,100876.03
2022-12-06T03:13:55.276Z,100868.63
2022-12-06T03:16:28.199Z,100866.41
2022-12-06T03:19:12.856Z,100857.69
2022-12-06T03:22:06.523Z,100862.03
2022-12-06T03:24:36.123Z,100864.50
2022-12-06T03:27:09.357Z,100858.81
2022-12-06T03:29:41.915Z,100854.09
2022-12-06T03:32:09.728Z,100851.13
2022-12-06T03:34:39.111Z,100846.56
2022-12-06T03:37:09.269Z,100840.88
2022-12-06T03:39:42.101Z,100844.75
2022-12-06T03:42:09.620Z,100850.06
2022-12-06T03:44:36.898Z,100854.72
2022-12-06T03:47:11.150Z,100852.59
2022-12-06T03:50:00.824Z,100859.38
2022-12-06T03:52:29.451Z,100848.50
2022-12-06T03:54:55.982Z,100852.09
2022-12-06T03:57:22.437Z,100847.13
2022-12-06T03:59:48.885Z,100845.88
2022-12-06T04:02:15.386Z,100851.34
2022-12-06T04:04:41.835Z,100849.25
2022-12-06T04:07:10.286Z,100853.19
2022-12-06T04:09:55.248Z,100846.13
2022-12-06T04:12:41.583Z,100839.81
2022-12-06T04:15:09.210Z,100839.22
2022-12-06T04:17:57.146Z,100843.75
2022-12-06T04:20:24.330Z,100838.44
2022-12-06T04:23:05.525Z,100833.97
2022-12-06T04:25:36.113Z,100831.56
2022-12-06T04:28:22.356Z,100836.09
2022-12-06T04:31:07.413Z,100826.19
2022-12-06T04:33:52.492Z,100821.81
2022-12-06T04:36:37.273Z,100819.88
2022-12-06T04:39:03.941Z,100822.94
2022-12-06T04:41:49.008Z,100821.69
2022-12-06T04:44:15.697Z,100820.31
2022-12-06T04:46:42.278Z,100819.25
2022-12-06T04:49:08.853Z,100821.91
2022-12-06T04:51:35.338Z,100820.69
2022-12-06T04:54:02.083Z,100820.03
2022-12-06T04:56:28.593Z,100816.13
2022-12-06T04:58:55.080Z,100807.47
2022-12-06T05:01:21.589Z,100817.66
2022-12-06T05:03:48.251Z,100806.66
2022-12-06T05:06:14.843Z,100809.94
2022-12-06T05:08:41.416Z,100808.47
2022-12-06T05:11:07.849Z,100805.75
2022-12-06T05:13:34.370Z,100805.34
2022-12-06T05:16:04.594Z,100798.25
2022-12-06T05:18:33.686Z,100799.22
2022-12-06T05:21:13.848Z,100801.56
2022-12-06T05:23:41.125Z,100793.91
2022-12-06T05:26:11.652Z,100790.09
2022-12-06T05:28:38.323Z,100795.22
2022-12-06T05:31:04.988Z,100788.09
2022-12-06T05:33:31.721Z,100791.91
2022-12-06T05:35:58.326Z,100786.03
2022-12-06T05:38:24.799Z,100789.19
2022-12-06T05:40:51.969Z,100785.53
2022-12-06T05:43:18.382Z,100786.56
2022-12-06T05:45:44.978Z,100780.63
2022-12-06T05:48:11.493Z,100783.56
2022-12-06T05:50:38.053Z,100785.66
2022-12-06T05:53:04.457Z,100781.72
2022-12-06T05:55:30.944Z,100783.88
2022-12-06T05:57:57.387Z,100778.34
2022-12-06T06:00:23.893Z,100780.69
2022-12-06T06:02:50.554Z,100780.75
2022-12-06T06:05:17.370Z,100766.63
2022-12-06T06:07:43.950Z,100775.88
2022-12-06T06:10:10.813Z,100776.94
2022-12-06T06:12:37.344Z,100778.25
2022-12-06T06:15:07.003Z,100774.91
2022-12-06T06:17:34.886Z,100779.38
2022-12-06T06:20:05.624Z,100781.31
2022-12-06T06:22:37.285Z,100777.63
2022-12-06T06:25:04.378Z,100778.75
2022-12-06T06:27:39.620Z,100780.63
2022-12-06T06:30:09.330Z,100774.78
2022-12-06T06:32:36.081Z,100779.72
2022-12-06T06:35:03.526Z,100773.16
2022-12-06T06:37:29.986Z,100772.88
2022-12-06T06:39:56.532Z,100767.81
2022-12-06T06:42:22.937Z,100770.16
2022-12-06T06:44:49.474Z,100776.78
2022-12-06T06:47:15.956Z,100771.91
2022-12-06T06:49:42.651Z,100772.06
2022-12-06T06:52:09.164Z,100769.56
2022-12-06T06:54:35.606Z,100772.50
2022-12-06T06:57:02.972Z,100771.75
2022-12-06T06:59:29.473Z,100775.31
2022-12-06T07:01:56.141Z,100779.59
2022-12-06T07:04:22.778Z,100777.41
2022-12-06T07:06:49.242Z,100783.88
2022-12-06T07:09:15.682Z,100788.22
2022-12-06T07:11:42.300Z,100790.50
2022-12-06T07:14:08.736Z,100790.28
2022-12-06T07:16:35.296Z,100791.38
2022-12-06T07:19:07.590Z,100793.69
2022-12-06T07:21:35.533Z,100795.16
2022-12-06T07:24:02.013Z,100803.69
2022-12-06T07:26:29.067Z,100801.03
2022-12-06T07:28:57.727Z,100791.69
2022-12-06T07:31:27.937Z,100798.84
2022-12-06T07:33:56.935Z,100794.78
2022-12-06T07:36:24.986Z,100793.06
2022-12-06T07:38:54.153Z,100799.50
2022-12-06T07:41:40.932Z,100799.31
2022-12-06T07:44:28.673Z,100798.91
2022-12-06T07:46:56.048Z,100796.47
2022-12-06T07:49:23.062Z,100798.63
2022-12-06T07:51:49.544Z,100796.13
2022-12-06T07:54:16.784Z,100798.16
2022-12-06T07:56:44.367Z,100795.34
2022-12-06T07:59:10.989Z,100787.91
2022-12-06T08:01:37.631Z,100793.28
2022-12-06T08:04:05.429Z,100793.19
2022-12-06T08:06:33.412Z,100795.28
2022-12-06T08:09:00.246Z,100797.19
2022-12-06T08:11:26.994Z,100790.72
2022-12-06T08:13:53.380Z,100799.25
2022-12-06T08:16:19.854Z,100801.50
2022-12-06T08:18:46.366Z,100805.91
2022-12-06T08:21:13.296Z,100805.94
2022-12-06T08:23:39.775Z,100814.31
2022-12-06T08:26:12.376Z,100814.94
2022-12-06T08:28:39.427Z,100814.16
2022-12-06T08:31:07.985Z,100815.63
2022-12-06T08:33:35.113Z,100825.22
2022-12-06T08:36:01.740Z,100815.88
2022-12-06T08:38:28.694Z,100813.31
2022-12-06T08:40:55.148Z,100816.97
2022-12-06T08:43:21.554Z,100817.16
2022-12-06T08:45:52.335Z,100816.19
2022-12-06T08:48:18.959Z,100817.53
2022-12-06T08:50:45.430Z,100817.06
2022-12-06T08:53:11.826Z,100820.13
2022-12-06T08:55:38.653Z,100828.66
2022-12-06T08:58:05.057Z,100821.97
2022-12-06T09:00:31.570Z,100810.03
2022-12-06T09:02:58.078Z,100815.06
2022-12-06T09:05:24.515Z,100819.78
2022-12-06T09:07:51.002Z,100823.41
2022-12-06T09:10:17.547Z,100816.94
2022-12-06T09:12:43.954Z,100823.00
2022-12-06T09:15:10.891Z,100823.72
2022-12-06T09:17:37.331Z,100821.81
2022-12-06T09:20:06.391Z,100829.06
2022-12-06T09:22:33.198Z,100824.31
2022-12-06T09:27:30.477Z,100823.06
2022-12-06T09:29:56.884Z,100835.38
2022-12-06T09:32:23.344Z,100835.19
2022-12-06T09:34:49.749Z,100826.88
2022-12-06T09:37:16.197Z,100831.41
2022-12-06T09:40:11.709Z,100823.41
2022-12-06T09:42:50.697Z,100829.22
2022-12-06T09:45:40.844Z,100829.13
2022-12-06T09:48:50.566Z,100824.69
2022-12-06T09:51:19.665Z,100814.13
2022-12-06T09:54:17.210Z,100827.44
2022-12-06T09:56:52.077Z,100810.13
2022-12-06T09:59:18.457Z,100822.19
2022-12-06T10:02:25.088Z,100821.88
2022-12-06T10:05:10.040Z,100820.53
2022-12-06T10:07:50.625Z,100815.16
2022-12-06T10:10:37.966Z,100805.38
2022-12-06T10:13:12.849Z,100805.13
2022-12-06T10:15:57.781Z,100816.06
2022-12-06T10:18:24.232Z,100806.91
2022-12-06T10:21:16.349Z,100799.63
2022-12-06T10:24:20.583Z,100811.69
2022-12-06T10:26:53.052Z,100804.88
2022-12-06T10:29:27.369Z,100808.09
2022-12-06T10:32:04.226Z,100802.97
2022-12-06T10:34:51.809Z,100797.31
2022-12-06T10:37:30.135Z,100797.63
2022-12-06T10:40:22.363Z,100807.94
2022-12-06T10:43:13.405Z,100796.13
2022-12-06T10:46:30.880Z,100792.09
2022-12-06T10:49:11.351Z,100794.19
2022-12-06T10:51:50.614Z,100788.03
2022-12-06T10:54:36.205Z,100787.22
2022-12-06T10:57:08.066Z,100793.50
2022-12-06T10:59:42.445Z,100794.97
2022-12-06T11:02:27.702Z,100788.03
2022-12-06T11:05:01.888Z,100788.91
2022-12-06T11:07:37.925Z,100780.31
2022-12-06T11:10:15.965Z,100793.00
2022-12-06T11:12:43.430Z,100781.41
2022-12-06T11:15:35.104Z,100789.03
2022-12-06T11:18:18.956Z,100780.69
2022-12-06T11:20:58.671Z,100786.94
2022-12-06T11:23:48.327Z,100782.81
2022-12-06T11:26:30.844Z,100779.53
2022-12-06T11:29:09.968Z,100778.84
2022-12-06T11:31:57.531Z,100779.97
2022-12-06T11:34:33.443Z,100777.63
2022-12-06T11:37:03.044Z,100777.69
2022-12-06T11:39:31.196Z,100776.50
2022-12-06T11:42:02.262Z,100767.38
2022-12-06T11:44:38.464Z,100775.00
2022-12-06T11:47:06.468Z,100766.53
2022-12-06T11:49:40.005Z,100765.34
2022-12-06T11:52:13.062Z,100765.19
2022-12-06T11:55:04.307Z,100764.81
2022-12-06T11:57:38.430Z,100757.59
2022-12-06T12:00:26.148Z,100755.63
2022-12-06T12:02:55.717Z,100762.16
2022-12-06T12:05:22.659Z,100762.28
2022-12-06T12:08:01.810Z,100753.47
2022-12-06T12:10:31.639Z,100753.03
2022-12-06T12:13:34.984Z,100754.91
2022-12-06T12:16:13.863Z,100749.97
2022-12-06T12:18:50.529Z,100750.00
2022-12-06T12:21:27.931Z,100748.53
2022-12-06T12:23:54.364Z,100751.34
2022-12-06T12:26:22.177Z,100750.19
2022-12-06T12:29:20.696Z,100752.66
2022-12-06T12:31:51.924Z,100750.31
2022-12-06T12:34:21.816Z,100756.72
2022-12-06T12:37:03.883Z,100744.53
2022-12-06T12:39:40.938Z,100730.94
2022-12-06T12:42:26.142Z,100733.41
2022-12-06T12:44:58.632Z,100736.19
2022-12-06T12:47:25.817Z,100735.25
2022-12-06T12:50:01.159Z,100731.38
2022-12-06T12:52:39.389Z,100748.66
2022-12-06T12:55:15.564Z,100741.31
2022-12-06T12:57:45.200Z,100737.59
2022-12-06T13:00:24.423Z,100735.66
2022-12-06T13:02:55.426Z,100737.34
2022-12-06T13:05:34.972Z,100734.97
2022-12-06T13:08:21.326Z,100736.56
2022-12-06T13:10:55.655Z,100732.25
2022-12-06T13:13:37.235Z,100729.50
2022-12-06T13:16:11.804Z,100723.53
2022-12-06T13:18:46.269Z,100723.81
2022-12-06T13:21:43.617Z,100724.19
2022-12-06T13:24:09.968Z,100722.31
2022-12-06T13:26:39.094Z,100724.59
2022-12-06T13:29:22.719Z,100724.81
2022-12-06T13:31:52.309Z,100726.28
2022-12-06T13:34:39.981Z,100721.56
2022-12-06T13:37:29.763Z,100715.94
2022-12-06T13:39:57.123Z,100717.22
2022-12-06T13:42:45.462Z,100716.59
2022-12-06T13:45:40.352Z,100708.78
2022-12-06T13:48:25.583Z,100727.84
2022-12-06T13:50:55.032Z,100722.63
2022-12-06T13:53:24.575Z,100729.13
2022-12-06T13:56:28.013Z,100729.94
2022-12-06T13:58:57.046Z,100732.72
2022-12-06T14:01:39.928Z,100734.41
2022-12-06T14:06:53.856Z,100739.75
2022-12-06T14:09:21.281Z,100740.88
2022-12-06T14:11:47.754Z,100744.78
2022-12-06T14:14:17.184Z,100737.63
2022-12-06T14:16:49.802Z,100740.59
2022-12-06T14:19:18.886Z,100743.53
2022-12-06T14:21:59.049Z,100747.31
2022-12-06T14:24:27.137Z,100732.72
2022-12-06T14:26:53.527Z,100732.66
2022-12-06T14:29:24.744Z,100732.94
2022-12-06T14:31:52.019Z,100731.38
2022-12-06T14:34:33.137Z,100738.03
2022-12-06T14:37:01.494Z,100736.53
2022-12-06T14:39:32.379Z,100732.41
2022-12-06T14:42:32.478Z,100729.03
2022-12-06T14:45:02.711Z,100735.41
2022-12-06T14:47:30.253Z,100736.31
2022-12-06T14:50:19.326Z,100740.44
2022-12-06T14:53:06.378Z,100737.50
2022-12-06T14:55:49.534Z,100733.47
2022-12-06T14:58:19.982Z,100739.34
2022-12-06T15:00:53.668Z,100739.88
2022-12-06T15:03:25.493Z,100736.09
2022-12-06T15:06:12.906Z,100736.88
2022-12-06T15:08:51.824Z,100731.34
2022-12-06T15:11:38.533Z,100734.75
2022-12-06T15:14:24.099Z,100731.91
2022-12-06T15:17:04.578Z,100731.44
2022-12-06T15:19:34.053Z,100737.88
2022-12-06T15:22:01.005Z,100736.59
2022-12-06T15:24:28.599Z,100739.00
2022-12-06T15:26:55.192Z,100731.00
2022-12-06T15:29:22.101Z,100734.94
2022-12-06T15:31:53.901Z,100736.06
2022-12-06T15:34:32.122Z,100736.44
2022-12-06T15:37:36.482Z,100741.28
2022-12-06T15:39:46.720Z,100737.06
2022-12-06T15:42:21.774Z,100743.28
2022-12-06T15:44:50.167Z,100748.06
2022-12-06T15:47:20.041Z,100743.78
2022-12-06T15:49:46.917Z,100737.91
2022-12-06T15:52:18.631Z,100743.53
2022-12-06T15:54:45.305Z,100742.13
2022-12-06T15:57:11.793Z,100742.16
2022-12-06T15:59:38.200Z,100745.34
2022-12-06T16:02:15.463Z,100745.22
2022-12-06T16:04:43.074Z,100748.66
2022-12-06T16:07:10.525Z,100741.69
2022-12-06T16:09:37.021Z,100739.53
2022-12-06T16:12:03.979Z,100747.63
2022-12-06T16:14:30.375Z,100739.06
2022-12-06T16:16:56.761Z,100741.59
2022-12-06T16:19:23.200Z,100736.34
2022-12-06T16:21:55.557Z,100735.66
2022-12-06T16:24:22.672Z,100738.31
2022-12-06T16:26:49.378Z,100730.88
2022-12-06T16:29:17.877Z,100734.66
2022-12-06T16:31:45.183Z,100739.84
2022-12-06T16:34:12.096Z,100734.59
2022-12-06T16:36:58.683Z,100736.75
2022-12-06T16:39:26.006Z,100732.13
2022-12-06T16:41:52.509Z,100738.94
2022-12-06T16:44:18.986Z,100742.31
2022-12-06T16:46:46.448Z,100740.28
2022-12-06T16:52:11.677Z,100730.91
2022-12-06T16:54:41.057Z,100741.19
2022-12-06T16:57:08.128Z,100734.69
2022-12-06T16:59:35.156Z,100737.06
2022-12-06T17:02:01.734Z,100729.22
2022-12-06T17:04:30.612Z,100735.53
2022-12-06T17:06:57.072Z,100730.03
2022-12-06T17:09:23.510Z,100727.97
2022-12-06T17:12:06.770Z,100731.81
2022-12-06T17:14:33.747Z,100728.53
2022-12-06T17:17:03.859Z,100724.31
2022-12-06T17:19:32.135Z,100723.38
2022-12-06T17:21:59.446Z,100727.13
2022-12-06T17:24:26.868Z,100724.25
2022-12-06T17:26:56.586Z,100718.84
2022-12-06T17:29:23.894Z,100720.53
2022-12-06T17:31:51.356Z,100728.03
2022-12-06T17:34:19.806Z,100730.91
2022-12-06T17:36:47.860Z,100722.00
2022-12-06T17:39:17.065Z,100736.16
2022-12-06T17:42:02.611Z,100735.66
2022-12-06T17:44:29.244Z,100733.63
2022-12-06T17:46:55.975Z,100738.16
2022-12-06T17:49:24.840Z,100729.09
2022-12-06T17:51:51.955Z,100728.03
2022-12-06T17:54:19.421Z,100737.47
2022-12-06T17:56:48.351Z,100737.56
2022-12-06T17:59:19.107Z,100741.03
2022-12-06T18:04:32.418Z,100742.53
2022-12-06T18:06:58.847Z,100737.84
2022-12-06T18:09:25.578Z,100736.63
2022-12-06T18:11:52.108Z,100745.91
2022-12-06T18:14:18.943Z,100744.25
2022-12-06T18:16:46.533Z,100749.63
2022-12-06T18:19:18.234Z,100750.47
2022-12-06T18:21:45.423Z,100743.25
2022-12-06T18:24:23.259Z,100753.16
2022-12-06T18:26:52.121Z,100749.19
2022-12-06T18:29:20.966Z,100752.66
2022-12-06T18:31:47.889Z,100748.34
2022-12-06T18:34:15.288Z,100755.78
2022-12-06T18:36:41.949Z,100742.44
2022-12-06T18:39:15.457Z,100746.56
2022-12-06T18:41:45.333Z,100744.06
2022-12-06T18:44:12.829Z,100740.69
2022-12-06T18:46:41.933Z,100735.81
2022-12-06T18:49:10.075Z,100739.97
2022-12-06T18:51:38.587Z,100744.03
2022-12-06T18:54:06.058Z,100732.22
2022-12-06T18:56:33.675Z,100740.97
2022-12-06T18:59:02.853Z,100744.69
2022-12-06T19:01:31.940Z,100741.25
2022-12-06T19:04:00.710Z,100741.44
2022-12-06T19:06:29.930Z,100739.97
2022-12-06T19:08:59.632Z,100740.22
2022-12-06T19:11:26.118Z,100741.53
2022-12-06T19:13:57.884Z,100733.34
2022-12-06T19:16:26.777Z,100735.16
2022-12-06T19:18:55.402Z,100734.50
2022-12-06T19:21:22.954Z,100739.69
2022-12-06T19:23:51.987Z,100739.88
2022-12-06T19:26:18.869Z,100732.16
2022-12-06T19:28:45.306Z,100741.25
2022-12-06T19:31:13.742Z,100735.56
2022-12-06T19:33:43.202Z,100736.22
2022-12-06T19:36:15.856Z,100726.03
2022-12-06T19:38:43.325Z,100724.75
2022-12-06T19:41:13.131Z,100726.72
2022-12-06T19:43:58.489Z,100726.44
2022-12-06T19:46:27.120Z,100724.31
2022-12-06T19:48:57.265Z,100739.31
2022-12-06T19:51:26.687Z,100732.59
2022-12-06T19:53:53.091Z,100729.59
2022-12-06T19:56:20.200Z,100729.31
2022-12-06T19:58:47.443Z,100729.28
2022-12-06T20:01:18.640Z,100724.53
2022-12-06T20:03:47.092Z,100725.16
2022-12-06T20:06:18.305Z,100722.25
2022-12-06T20:08:45.934Z,100715.22
2022-12-06T20:11:33.437Z,100721.69
2022-12-06T20:14:01.630Z,100720.16
2022-12-06T20:16:28.077Z,100720.22
2022-12-06T20:18:54.613Z,100712.59
2022-12-06T20:21:21.096Z,100708.84
2022-12-06T20:23:47.678Z,100709.31
2022-12-06T20:26:15.170Z,100711.66
2022-12-06T20:28:46.572Z,100708.53
2022-12-06T20:31:18.720Z,100704.38
2022-12-06T20:33:45.761Z,100700.72
2022-12-06T20:36:17.786Z,100703.44
2022-12-06T20:38:44.415Z,100713.03
2022-12-06T20:41:16.574Z,100703.59
2022-12-06T20:43:44.267Z,100702.09
2022-12-06T20:46:15.450Z,100700.78
2022-12-06T20:48:43.208Z,100698.41
2022-12-06T20:51:15.640Z,100693.72
2022-12-06T20:53:42.847Z,100693.38
2022-12-06T20:56:11.598Z,100689.97
2022-12-06T20:58:38.728Z,100690.78
2022-12-06T21:01:05.694Z,100682.28
2022-12-06T21:03:32.761Z,100680.47
2022-12-06T21:06:01.277Z,100680.38
2022-12-06T21:08:28.411Z,100678.91
2022-12-06T21:11:21.542Z,100674.31
2022-12-06T21:13:43.026Z,100676.97
2022-12-06T21:16:14.249Z,100678.44
2022-12-06T21:18:41.801Z,100680.28
2022-12-06T21:21:09.233Z,100670.22
2022-12-06T21:23:35.869Z,100665.81
2022-12-06T21:26:03.273Z,100654.97
2022-12-06T21:28:29.789Z,100660.31
2022-12-06T21:30:57.161Z,100662.91
2022-12-06T21:33:25.350Z,100662.88
2022-12-06T21:35:52.970Z,100661.81
2022-12-06T21:38:21.259Z,100659.47
2022-12-06T21:40:52.976Z,100651.34
2022-12-06T21:43:20.982Z,100643.88
2022-12-06T21:45:47.558Z,100651.53
2022-12-06T21:48:14.055Z,100651.69
2022-12-06T21:50:40.530Z,100645.34
2022-12-06T21:53:06.966Z,100645.34
2022-12-06T21:55:33.462Z,100640.97
2022-12-06T21:57:59.881Z,100640.66
2022-12-06T22:00:26.390Z,100637.97
2022-12-06T22:02:53.728Z,100633.28
2022-12-06T22:05:20.755Z,100633.28
2022-12-06T22:07:47.372Z,100631.88
2022-12-06T22:10:13.882Z,100631.66
2022-12-06T22:12:40.359Z,100633.47
2022-12-06T22:15:07.233Z,100639.38
2022-12-06T22:17:33.659Z,100634.00
2022-12-06T22:20:00.501Z,100635.78
2022-12-06T22:22:27.319Z,100632.78
2022-12-06T22:24:54.016Z,100628.53
2022-12-06T22:27:20.505Z,100630.47
2022-12-06T22:29:47.564Z,100630.56
2022-12-06T22:32:14.023Z,100629.50
2022-12-06T22:34:40.435Z,100629.28
2022-12-06T22:37:06.969Z,100629.38
2022-12-06T22:39:33.381Z,100621.19
2022-12-06T22:41:59.802Z,100618.66
2022-12-06T22:44:26.342Z,100623.63
2022-12-06T22:46:58.884Z,100613.31
2022-12-06T22:49:25.391Z,100614.50
2022-12-06T22:51:51.852Z,100615.66
2022-12-06T22:54:18.254Z,100618.78
2022-12-06T22:56:48.541Z,100617.50
2022-12-06T22:59:17.040Z,100605.16
2022-12-06T23:01:43.735Z,100601.03
2022-12-06T23:04:11.311Z,100587.59
2022-12-06T23:06:38.336Z,100591.94
2022-12-06T23:09:07.280Z,100598.94
2022-12-06T23:11:35.667Z,100590.16
2022-12-06T23:14:05.549Z,100591.00
2022-12-06T23:16:32.679Z,100584.69
2022-12-06T23:19:03.500Z,100592.72
2022-12-06T23:21:32.872Z,100584.19
2022-12-06T23:24:02.060Z,100582.78
2022-12-06T23:26:35.028Z,100578.63
2022-12-06T23:29:02.480Z,100568.63
2022-12-06T23:31:31.610Z,100569.69
2022-12-06T23:34:01.134Z,100566.84
2022-12-06T23:36:30.927Z,100560.16
2022-12-06T23:38:57.655Z,100552.00
2022-12-06T23:41:26.571Z,100548.50
2022-12-06T23:43:53.996Z,100553.44
2022-12-06T23:46:24.102Z,100551.03
2022-12-06T23:48:51.409Z,100548.03
2022-12-06T23:51:20.129Z,100546.31
2022-12-06T23:53:52.078Z,100536.34
2022-12-06T23:56:20.724Z,100532.84
2022-12-06T23:58:50.252Z,100531.56
